Time,TemperatureF,DewpointF,PressureIn,WindDirection,WindDirectionDegrees,WindSpeedMPH,WindSpeedGustMPH,Humidity,HourlyPrecipIn,Conditions,Clouds,dailyrainin,SoftwareType,DateUTC
2013-06-23 00:02:00,39.0,37.0,-100.00,WNW,289,1.0,1.0,91,0.00,,,0.13,,2013-06-23 06:02:00,
2013-06-23 00:12:00,39.0,37.0,-100.00,WNW,289,1.0,1.0,91,0.00,,,0.13,,2013-06-23 06:12:00,
2013-06-23 00:22:00,39.0,37.0,-100.00,WNW,289,1.0,1.0,91,0.00,,,0.13,,2013-06-23 06:22:00,
2013-06-23 00:32:00,38.0,37.0,-100.00,NW,316,1.0,1.0,94,0.00,,,0.13,,2013-06-23 06:32:00,
2013-06-23 00:43:00,39.0,37.0,-100.00,NW,309,1.0,1.0,92,0.00,,,0.13,,2013-06-23 06:43:00,
2013-06-23 00:52:00,39.0,37.0,-100.00,NW,309,1.0,1.0,92,0.00,,,0.13,,2013-06-23 06:52:00,
2013-06-23 01:02:00,39.0,37.0,-100.00,NNW,342,1.0,2.0,93,0.00,,,0.13,,2013-06-23 07:02:00,
2013-06-23 01:12:00,38.0,37.0,-100.00,WNW,295,1.0,2.0,96,0.00,,,0.13,,2013-06-23 07:12:00,
2013-06-23 01:22:00,38.0,37.0,-100.00,WNW,295,1.0,2.0,96,0.00,,,0.13,,2013-06-23 07:22:00,
2013-06-23 01:34:00,38.0,37.0,-100.00,West,260,1.0,2.0,95,0.00,,,0.13,,2013-06-23 07:34:00,
2013-06-23 01:43:00,38.0,36.0,-100.00,WSW,250,2.0,3.0,95,0.00,,,0.13,,2013-06-23 07:43:00,
2013-06-23 01:53:00,38.0,36.0,-100.00,WSW,250,2.0,3.0,95,0.00,,,0.13,,2013-06-23 07:53:00,
2013-06-23 02:02:00,38.0,36.0,-100.00,WNW,284,1.0,1.0,96,0.00,,,0.13,,2013-06-23 08:02:00,
2013-06-23 02:22:00,37.0,36.0,-100.00,WNW,285,1.0,2.0,97,0.00,,,0.13,,2013-06-23 08:22:00,
2013-06-23 02:33:00,37.0,36.0,-100.00,West,261,1.0,2.0,97,0.00,,,0.13,,2013-06-23 08:33:00,
2013-06-23 02:42:00,37.0,36.0,-100.00,WSW,248,1.0,2.0,97,0.00,,,0.13,,2013-06-23 08:42:00,
2013-06-23 02:53:00,37.0,36.0,-100.00,WSW,248,1.0,2.0,97,0.00,,,0.13,,2013-06-23 08:53:00,
2013-06-23 03:02:00,37.0,36.0,-100.00,WSW,257,0.0,1.0,97,0.00,,,0.13,,2013-06-23 09:02:00,
2013-06-23 03:12:00,37.0,36.0,-100.00,SSW,198,0.0,1.0,93,0.00,,,0.13,,2013-06-23 09:12:00,
2013-06-23 03:34:00,38.0,36.0,-100.00,South,172,0.0,0.0,93,0.00,,,0.13,,2013-06-23 09:34:00,
2013-06-23 03:43:00,37.0,35.0,-100.00,South,171,0.0,1.0,93,0.00,,,0.13,,2013-06-23 09:43:00,
2013-06-23 03:53:00,37.0,35.0,-100.00,South,171,0.0,1.0,93,0.00,,,0.13,,2013-06-23 09:53:00,
2013-06-23 04:02:00,36.0,35.0,-100.00,SSE,167,1.0,2.0,94,0.00,,,0.12,,2013-06-23 10:02:00,
2013-06-23 04:22:00,37.0,35.0,-100.00,SSE,154,2.0,2.0,92,0.00,,,0.12,,2013-06-23 10:22:00,
2013-06-23 04:34:00,37.0,35.0,-100.00,SSE,162,2.0,2.0,93,0.00,,,0.11,,2013-06-23 10:34:00,
2013-06-23 04:43:00,37.0,35.0,-100.00,SSE,154,2.0,2.0,92,0.00,,,0.11,,2013-06-23 10:43:00,
2013-06-23 05:01:00,37.0,35.0,-100.00,SSE,154,2.0,2.0,92,0.00,,,0.11,,2013-06-23 11:01:00,
2013-06-23 05:11:00,38.0,36.0,-100.00,SSE,150,3.0,4.0,94,0.00,,,0.10,,2013-06-23 11:11:00,
2013-06-23 05:22:00,38.0,36.0,-100.00,SSE,150,3.0,4.0,94,0.00,,,0.10,,2013-06-23 11:22:00,
2013-06-23 05:33:00,39.0,36.0,-100.00,SE,144,4.0,4.0,91,0.00,,,0.09,,2013-06-23 11:33:00,
2013-06-23 05:43:00,39.0,37.0,-100.00,SE,145,3.0,3.0,91,0.00,,,0.08,,2013-06-23 11:43:00,
2013-06-23 05:53:00,39.0,37.0,-100.00,SE,145,3.0,3.0,91,0.00,,,0.08,,2013-06-23 11:53:00,
2013-06-23 06:01:00,41.0,38.0,-100.00,SE,136,4.0,4.0,89,0.00,,,0.07,,2013-06-23 12:01:00,
2013-06-23 06:11:00,41.0,38.0,-100.00,SE,134,4.0,5.0,91,0.00,,,0.07,,2013-06-23 12:11:00,
2013-06-23 06:22:00,41.0,38.0,-100.00,SE,134,4.0,5.0,91,0.00,,,0.07,,2013-06-23 12:22:00,
2013-06-23 06:33:00,41.0,38.0,-100.00,SE,134,4.0,4.0,90,0.00,,,0.07,,2013-06-23 12:33:00,
2013-06-23 07:01:00,41.0,38.0,-100.00,SE,133,4.0,4.0,91,0.00,,,0.07,,2013-06-23 13:01:00,
2013-06-23 07:23:00,41.0,39.0,-100.00,SE,130,4.0,4.0,93,0.00,,,0.07,,2013-06-23 13:23:00,
2013-06-23 07:34:00,41.0,39.0,-100.00,SE,124,4.0,5.0,93,0.00,,,0.07,,2013-06-23 13:34:00,
2013-06-23 07:43:00,42.0,39.0,-100.00,SE,126,5.0,6.0,90,0.00,,,0.07,,2013-06-23 13:43:00,
2013-06-23 07:54:00,42.0,39.0,-100.00,SE,126,5.0,6.0,90,0.00,,,0.07,,2013-06-23 13:54:00,
2013-06-23 08:11:00,43.0,39.0,-100.00,ESE,120,5.0,6.0,88,0.00,,,0.07,,2013-06-23 14:11:00,
2013-06-23 08:22:00,44.0,40.0,-100.00,SE,130,5.0,6.0,86,0.00,,,0.06,,2013-06-23 14:22:00,
2013-06-23 08:52:00,45.0,40.0,-100.00,SE,137,7.0,9.0,83,0.00,,,0.05,,2013-06-23 14:52:00,
2013-06-23 09:05:00,45.0,40.0,-100.00,SE,138,7.0,9.0,81,0.00,,,0.05,,2013-06-23 15:05:00,
2013-06-23 09:11:00,45.0,40.0,-100.00,SE,138,7.0,9.0,81,0.00,,,0.05,,2013-06-23 15:11:00,
2013-06-23 09:22:00,46.0,40.0,-100.00,ESE,123,7.0,9.0,79,0.00,,,0.04,,2013-06-23 15:22:00,
2013-06-23 09:34:00,46.0,40.0,-100.00,ESE,123,7.0,9.0,79,0.00,,,0.04,,2013-06-23 15:34:00,
2013-06-23 09:43:00,47.0,40.0,-100.00,SE,128,6.0,8.0,76,0.00,,,0.04,,2013-06-23 15:43:00,
2013-06-23 09:53:00,47.0,40.0,-100.00,SE,128,6.0,8.0,76,0.00,,,0.04,,2013-06-23 15:53:00,
2013-06-23 10:05:00,47.0,40.0,-100.00,SE,128,6.0,8.0,76,0.00,,,0.04,,2013-06-23 16:05:00,
2013-06-23 10:11:00,47.0,40.0,-100.00,SE,128,6.0,8.0,76,0.00,,,0.04,,2013-06-23 16:11:00,
2013-06-23 10:36:00,51.0,42.0,-100.00,SSE,165,6.0,12.0,70,0.00,,,0.02,,2013-06-23 16:36:00,
2013-06-23 10:43:00,52.0,40.0,-100.00,SSE,158,6.0,11.0,64,0.00,,,0.02,,2013-06-23 16:43:00,
2013-06-23 10:53:00,52.0,40.0,-100.00,SSE,158,6.0,11.0,64,0.00,,,0.02,,2013-06-23 16:53:00,
2013-06-23 11:03:00,52.0,40.0,-100.00,SSE,158,6.0,11.0,64,0.00,,,0.02,,2013-06-23 17:03:00,
2013-06-23 11:11:00,52.0,40.0,-100.00,SSE,158,6.0,11.0,64,0.00,,,0.02,,2013-06-23 17:11:00,
2013-06-23 11:22:00,53.0,39.0,-100.00,SSE,155,7.0,12.0,59,0.00,,,0.02,,2013-06-23 17:22:00,
2013-06-23 11:33:00,54.0,42.0,-100.00,SSE,148,7.0,10.0,63,0.00,,,0.02,,2013-06-23 17:33:00,
2013-06-23 11:43:00,54.0,40.0,-100.00,SE,127,8.0,12.0,59,0.00,,,0.02,,2013-06-23 17:43:00,
2013-06-23 11:53:00,54.0,40.0,-100.00,SE,127,8.0,12.0,59,0.00,,,0.02,,2013-06-23 17:53:00,
2013-06-23 12:01:00,54.0,40.0,-100.00,SE,127,8.0,12.0,59,0.00,,,0.02,,2013-06-23 18:01:00,
2013-06-23 12:11:00,55.0,41.0,-100.00,SE,140,8.0,12.0,59,0.00,,,0.02,,2013-06-23 18:11:00,
2013-06-23 12:22:00,55.0,41.0,-100.00,SE,140,8.0,12.0,59,0.00,,,0.02,,2013-06-23 18:22:00,
2013-06-23 12:34:00,55.0,40.0,-100.00,SE,126,7.0,11.0,57,0.00,,,0.02,,2013-06-23 18:34:00,
2013-06-23 12:42:00,58.0,41.0,-100.00,South,176,6.0,9.0,53,0.00,,,0.02,,2013-06-23 18:42:00,
2013-06-23 13:01:00,58.0,41.0,-100.00,South,176,6.0,9.0,53,0.00,,,0.02,,2013-06-23 19:01:00,
2013-06-23 13:11:00,58.0,41.0,-100.00,South,176,6.0,9.0,53,0.00,,,0.02,,2013-06-23 19:11:00,
2013-06-23 13:21:00,56.0,40.0,-100.00,SSE,167,5.0,8.0,56,0.00,,,0.02,,2013-06-23 19:21:00,
2013-06-23 13:43:00,57.0,40.0,-100.00,SSE,152,6.0,9.0,53,0.00,,,0.02,,2013-06-23 19:43:00,
2013-06-23 13:53:00,57.0,40.0,-100.00,SSE,152,6.0,9.0,53,0.00,,,0.02,,2013-06-23 19:53:00,
2013-06-23 14:01:00,58.0,39.0,-100.00,SE,126,7.0,10.0,48,0.00,,,0.02,,2013-06-23 20:01:00,
2013-06-23 14:11:00,60.0,39.0,-100.00,SE,143,6.0,10.0,46,0.00,,,0.02,,2013-06-23 20:11:00,
2013-06-23 14:23:00,60.0,39.0,-100.00,SE,143,6.0,10.0,46,0.00,,,0.02,,2013-06-23 20:23:00,
2013-06-23 14:33:00,60.0,37.0,-100.00,SE,133,9.0,11.0,42,0.00,,,0.02,,2013-06-23 20:33:00,
2013-06-23 14:42:00,59.0,37.0,-100.00,ESE,114,7.0,9.0,44,0.00,,,0.02,,2013-06-23 20:42:00,
2013-06-23 14:53:00,59.0,37.0,-100.00,ESE,114,7.0,9.0,44,0.00,,,0.02,,2013-06-23 20:53:00,
2013-06-23 15:01:00,60.0,38.0,-100.00,SSE,151,6.0,8.0,45,0.00,,,0.02,,2013-06-23 21:01:00,
2013-06-23 15:33:00,61.0,37.0,-100.00,SSE,154,7.0,11.0,42,0.00,,,0.02,,2013-06-23 21:33:00,
2013-06-23 15:44:00,61.0,35.0,-100.00,SSE,160,6.0,8.0,38,0.00,,,0.00,,2013-06-23 21:44:00,
2013-06-23 15:52:00,61.0,35.0,-100.00,SSE,160,6.0,8.0,38,0.00,,,0.00,,2013-06-23 21:52:00,
2013-06-23 16:01:00,62.0,36.0,-100.00,SE,141,6.0,11.0,38,0.00,,,0.00,,2013-06-23 22:01:00,
2013-06-23 16:11:00,62.0,34.0,-100.00,SE,134,10.0,13.0,36,0.00,,,0.00,,2013-06-23 22:11:00,
2013-06-23 16:22:00,62.0,34.0,-100.00,SE,134,10.0,13.0,36,0.00,,,0.00,,2013-06-23 22:22:00,
2013-06-23 16:32:00,62.0,34.0,-100.00,SE,134,10.0,13.0,36,0.00,,,0.00,,2013-06-23 22:32:00,
2013-06-23 16:43:00,65.0,35.0,-100.00,West,260,4.0,8.0,32,0.00,,,0.00,,2013-06-23 22:43:00,
2013-06-23 17:01:00,64.0,37.0,-100.00,West,277,2.0,4.0,36,0.00,,,0.00,,2013-06-23 23:01:00,
2013-06-23 17:22:00,64.0,35.0,-100.00,South,188,3.0,6.0,33,0.00,,,0.00,,2013-06-23 23:22:00,
2013-06-23 17:33:00,65.0,35.0,-100.00,West,280,2.0,5.0,32,0.00,,,0.00,,2013-06-23 23:33:00,
2013-06-23 17:44:00,63.0,37.0,-100.00,South,169,6.0,11.0,38,0.00,,,0.00,,2013-06-23 23:44:00,
2013-06-23 17:52:00,63.0,37.0,-100.00,South,169,6.0,11.0,38,0.00,,,0.00,,2013-06-23 23:52:00,
2013-06-23 18:01:00,67.0,39.0,-100.00,SW,230,4.0,8.0,35,0.00,,,0.00,,2013-06-24 00:01:00,
2013-06-23 18:11:00,67.0,39.0,-100.00,SW,230,4.0,8.0,35,0.00,,,0.00,,2013-06-24 00:11:00,
2013-06-23 18:22:00,67.0,39.0,-100.00,SW,230,4.0,8.0,35,0.00,,,0.00,,2013-06-24 00:22:00,
2013-06-23 18:33:00,65.0,36.0,-100.00,SW,216,3.0,4.0,35,0.00,,,0.00,,2013-06-24 00:33:00,
2013-06-23 18:42:00,63.0,38.0,-100.00,NNE,13,2.0,4.0,40,0.00,,,0.00,,2013-06-24 00:42:00,
2013-06-23 18:52:00,63.0,38.0,-100.00,NNE,13,2.0,4.0,40,0.00,,,0.00,,2013-06-24 00:52:00,
2013-06-23 19:01:00,63.0,38.0,-100.00,West,264,3.0,6.0,39,0.00,,,0.00,,2013-06-24 01:01:00,
2013-06-23 19:11:00,63.0,38.0,-100.00,West,264,3.0,6.0,39,0.00,,,0.00,,2013-06-24 01:11:00,
2013-06-23 19:21:00,63.0,38.0,-100.00,West,264,3.0,6.0,39,0.00,,,0.00,,2013-06-24 01:21:00,
2013-06-23 19:32:00,61.0,38.0,-100.00,SE,141,1.0,2.0,43,0.00,,,0.00,,2013-06-24 01:32:00,
2013-06-23 19:42:00,61.0,41.0,-100.00,SSE,150,2.0,4.0,47,0.00,,,0.00,,2013-06-24 01:42:00,
2013-06-23 20:01:00,61.0,39.0,-100.00,South,179,2.0,3.0,44,0.00,,,0.00,,2013-06-24 02:01:00,
2013-06-23 20:21:00,61.0,42.0,-100.00,SSE,168,1.0,2.0,49,0.00,,,0.00,,2013-06-24 02:21:00,
2013-06-23 20:33:00,60.0,39.0,-100.00,NW,325,4.0,6.0,47,0.00,,,0.00,,2013-06-24 02:33:00,
2013-06-23 20:42:00,59.0,40.0,-100.00,NW,308,3.0,4.0,49,0.00,,,0.00,,2013-06-24 02:42:00,
2013-06-23 20:53:00,59.0,40.0,-100.00,NW,308,3.0,4.0,49,0.00,,,0.00,,2013-06-24 02:53:00,
2013-06-23 21:01:00,59.0,40.0,-100.00,NW,308,3.0,4.0,49,0.00,,,0.00,,2013-06-24 03:01:00,
2013-06-23 21:22:00,57.0,41.0,-100.00,NW,313,4.0,5.0,54,0.00,,,0.00,,2013-06-24 03:22:00,
2013-06-23 21:33:00,56.0,41.0,-100.00,NW,312,2.0,3.0,56,0.00,,,0.00,,2013-06-24 03:33:00,
2013-06-23 21:43:00,55.0,40.0,-100.00,NW,311,3.0,4.0,57,0.00,,,0.00,,2013-06-24 03:43:00,
2013-06-23 22:01:00,55.0,40.0,-100.00,NW,311,3.0,4.0,57,0.00,,,0.00,,2013-06-24 04:01:00,
2013-06-23 22:11:00,54.0,41.0,-100.00,NW,318,2.0,4.0,61,0.00,,,0.00,,2013-06-24 04:11:00,
2013-06-23 22:22:00,54.0,41.0,-100.00,NW,318,2.0,4.0,61,0.00,,,0.00,,2013-06-24 04:22:00,
2013-06-23 22:33:00,54.0,41.0,-100.00,NW,326,4.0,6.0,62,0.00,,,0.00,,2013-06-24 04:33:00,
2013-06-23 22:43:00,54.0,42.0,-100.00,NW,318,3.0,4.0,62,0.00,,,0.00,,2013-06-24 04:43:00,
2013-06-23 22:53:00,54.0,42.0,-100.00,NW,318,3.0,4.0,62,0.00,,,0.00,,2013-06-24 04:53:00,
2013-06-23 23:02:00,54.0,41.0,-100.00,NW,309,3.0,4.0,60,0.00,,,0.00,,2013-06-24 05:02:00,
2013-06-23 23:12:00,53.0,43.0,-100.00,NNW,333,3.0,4.0,67,0.00,,,0.00,,2013-06-24 05:12:00,
2013-06-23 23:22:00,53.0,43.0,-100.00,NNW,333,3.0,4.0,67,0.00,,,0.00,,2013-06-24 05:22:00,
2013-06-23 23:33:00,53.0,40.0,-100.00,NW,318,3.0,4.0,62,0.00,,,0.00,,2013-06-24 05:33:00,
2013-06-23 23:43:00,53.0,40.0,-100.00,NW,318,3.0,4.0,62,0.00,,,0.00,,2013-06-24 05:43:00,
2013-06-23 23:54:00,53.0,40.0,-100.00,NW,318,3.0,4.0,62,0.00,,,0.00,,2013-06-24 05:54:00,